sensor_id;sensor_type;location;lat;lon;timestamp;pressure;altitude;pressure_sealevel;temperature;humidity
77517;BME280;66628;53.946;27.634;2023-02-01T00:00:42;97490.000000;;;19.459999;30.074219
77517;BME280;66628;53.946;27.634;2023-02-01T00:01:42;97488.007812;;;19.500000;29.910156
77517;BME280;66628;53.946;27.634;2023-02-01T00:02:42;97488.000000;;;19.559999;30.091797
77517;BME280;66628;53.946;27.634;2023-02-01T00:03:42;97483.078125;;;19.610001;29.704102
77517;BME280;66628;53.946;27.634;2023-02-01T00:04:42;97485.109375;;;19.650000;29.696289
77517;BME280;66628;53.946;27.634;2023-02-01T00:05:42;97483.671875;;;19.680000;29.519531
77517;BME280;66628;53.946;27.634;2023-02-01T00:06:42;97481.039062;;;19.719999;29.565430
77517;BME280;66628;53.946;27.634;2023-02-01T00:07:42;97480.132812;;;19.760000;29.736328
77517;BME280;66628;53.946;27.634;2023-02-01T00:08:42;97479.679688;;;19.780001;29.973633
77517;BME280;66628;53.946;27.634;2023-02-01T00:09:42;97479.750000;;;19.809999;30.008789
77517;BME280;66628;53.946;27.634;2023-02-01T00:10:42;97476.679688;;;19.830000;30.122070
77517;BME280;66628;53.946;27.634;2023-02-01T00:11:42;97476.007812;;;19.850000;30.101562
77517;BME280;66628;53.946;27.634;2023-02-01T00:12:42;97477.687500;;;19.870001;30.057617
77517;BME280;66628;53.946;27.634;2023-02-01T00:13:42;97475.625000;;;19.889999;30.160156
77517;BME280;66628;53.946;27.634;2023-02-01T00:14:42;97474.250000;;;19.920000;30.038086
77517;BME280;66628;53.946;27.634;2023-02-01T00:15:42;97472.750000;;;19.940001;30.119141
77517;BME280;66628;53.946;27.634;2023-02-01T00:16:42;97475.562500;;;19.950001;29.862305
77517;BME280;66628;53.946;27.634;2023-02-01T00:17:42;97473.054688;;;19.969999;29.818359
77517;BME280;66628;53.946;27.634;2023-02-01T00:18:42;97470.875000;;;19.990000;29.651367
77517;BME280;66628;53.946;27.634;2023-02-01T00:19:42;97468.273438;;;20.000000;29.539062
77517;BME280;66628;53.946;27.634;2023-02-01T00:20:45;97472.140625;;;20.020000;29.485352
77517;BME280;66628;53.946;27.634;2023-02-01T00:21:42;97467.382812;;;20.030001;29.396484
77517;BME280;66628;53.946;27.634;2023-02-01T00:22:42;97468.281250;;;20.040001;29.463867
77517;BME280;66628;53.946;27.634;2023-02-01T00:23:42;97467.125000;;;20.059999;29.521484
77517;BME280;66628;53.946;27.634;2023-02-01T00:24:42;97463.804688;;;20.070000;29.522461
77517;BME280;66628;53.946;27.634;2023-02-01T00:25:42;97463.914062;;;20.090000;29.624023
77517;BME280;66628;53.946;27.634;2023-02-01T00:26:43;97465.945312;;;20.100000;29.614258
77517;BME280;66628;53.946;27.634;2023-02-01T00:27:42;97462.500000;;;20.120001;29.570312
77517;BME280;66628;53.946;27.634;2023-02-01T00:28:42;97464.984375;;;20.120001;29.693359
77517;BME280;66628;53.946;27.634;2023-02-01T00:29:42;97460.421875;;;20.129999;29.929688
77517;BME280;66628;53.946;27.634;2023-02-01T00:30:42;97462.843750;;;20.190001;30.146484
77517;BME280;66628;53.946;27.634;2023-02-01T00:31:42;97459.125000;;;20.230000;30.070312
77517;BME280;66628;53.946;27.634;2023-02-01T00:32:42;97459.367188;;;20.260000;30.218750
77517;BME280;66628;53.946;27.634;2023-02-01T00:33:42;97454.398438;;;20.270000;29.793945
77517;BME280;66628;53.946;27.634;2023-02-01T00:34:42;97453.312500;;;20.280001;29.647461
77517;BME280;66628;53.946;27.634;2023-02-01T00:35:42;97448.765625;;;20.280001;29.927734
77517;BME280;66628;53.946;27.634;2023-02-01T00:36:42;97447.671875;;;20.290001;29.839844
77517;BME280;66628;53.946;27.634;2023-02-01T00:37:42;97446.687500;;;20.290001;29.738281
77517;BME280;66628;53.946;27.634;2023-02-01T00:38:42;97446.250000;;;20.299999;29.616211
77517;BME280;66628;53.946;27.634;2023-02-01T00:39:42;97443.625000;;;20.299999;29.839844
77517;BME280;66628;53.946;27.634;2023-02-01T00:40:42;97444.718750;;;20.299999;29.750977
77517;BME280;66628;53.946;27.634;2023-02-01T00:41:42;97443.578125;;;20.299999;29.638672
77517;BME280;66628;53.946;27.634;2023-02-01T00:42:42;97442.843750;;;20.299999;29.750977
77517;BME280;66628;53.946;27.634;2023-02-01T00:43:42;97441.921875;;;20.309999;29.627930
77517;BME280;66628;53.946;27.634;2023-02-01T00:44:42;97441.632812;;;20.309999;29.516602
77517;BME280;66628;53.946;27.634;2023-02-01T00:45:42;97440.453125;;;20.320000;29.561523
77517;BME280;66628;53.946;27.634;2023-02-01T00:46:42;97441.109375;;;20.320000;29.583984
77517;BME280;66628;53.946;27.634;2023-02-01T00:47:42;97440.234375;;;20.320000;29.774414
77517;BME280;66628;53.946;27.634;2023-02-01T00:48:42;97436.695312;;;20.320000;29.539062
77517;BME280;66628;53.946;27.634;2023-02-01T00:49:45;97438.015625;;;20.330000;29.528320
77517;BME280;66628;53.946;27.634;2023-02-01T00:50:42;97435.125000;;;20.330000;29.841797
77517;BME280;66628;53.946;27.634;2023-02-01T00:51:42;97436.578125;;;20.340000;29.663086
77517;BME280;66628;53.946;27.634;2023-02-01T00:52:42;97432.718750;;;20.330000;29.988281
77517;BME280;66628;53.946;27.634;2023-02-01T00:53:42;97432.718750;;;20.330000;29.965820
77517;BME280;66628;53.946;27.634;2023-02-01T00:54:42;97428.890625;;;20.340000;29.920898
77517;BME280;66628;53.946;27.634;2023-02-01T00:56:42;97427.671875;;;20.350000;29.989258
77517;BME280;66628;53.946;27.634;2023-02-01T00:57:42;97425.835938;;;20.350000;29.876953
77517;BME280;66628;53.946;27.634;2023-02-01T00:58:42;97426.054688;;;20.350000;30.124023
77517;BME280;66628;53.946;27.634;2023-02-01T00:59:42;97425.531250;;;20.350000;29.833008
77517;BME280;66628;53.946;27.634;2023-02-01T01:00:42;97424.406250;;;20.360001;29.957031
77517;BME280;66628;53.946;27.634;2023-02-01T01:01:42;97419.601562;;;20.370001;29.810547
77517;BME280;66628;53.946;27.634;2023-02-01T01:02:42;97421.046875;;;20.370001;30.012695
77517;BME280;66628;53.946;27.634;2023-02-01T01:03:43;97421.835938;;;20.370001;29.901367
77517;BME280;66628;53.946;27.634;2023-02-01T01:04:42;97420.140625;;;20.379999;29.856445
77517;BME280;66628;53.946;27.634;2023-02-01T01:05:42;97419.484375;;;20.379999;29.890625
77517;BME280;66628;53.946;27.634;2023-02-01T01:06:42;97418.968750;;;20.379999;29.935547
77517;BME280;66628;53.946;27.634;2023-02-01T01:07:42;97417.828125;;;20.389999;29.790039
77517;BME280;66628;53.946;27.634;2023-02-01T01:08:42;97417.781250;;;20.379999;29.812500
77517;BME280;66628;53.946;27.634;2023-02-01T01:09:42;97419.492188;;;20.389999;29.869141
77517;BME280;66628;53.946;27.634;2023-02-01T01:10:42;97414.171875;;;20.400000;29.834961
77517;BME280;66628;53.946;27.634;2023-02-01T01:11:42;97415.437500;;;20.400000;29.958984
77517;BME280;66628;53.946;27.634;2023-02-01T01:12:42;97415.179688;;;20.410000;30.072266
77517;BME280;66628;53.946;27.634;2023-02-01T01:13:42;97411.078125;;;20.410000;30.094727
77517;BME280;66628;53.946;27.634;2023-02-01T01:14:42;97412.906250;;;20.420000;29.915039
77517;BME280;66628;53.946;27.634;2023-02-01T01:15:42;97410.460938;;;20.420000;29.892578
77517;BME280;66628;53.946;27.634;2023-02-01T01:16:42;97411.789062;;;20.430000;29.836914
77517;BME280;66628;53.946;27.634;2023-02-01T01:17:42;97410.171875;;;20.420000;30.072266
77517;BME280;66628;53.946;27.634;2023-02-01T01:18:42;97406.234375;;;20.430000;30.185547
77517;BME280;66628;53.946;27.634;2023-02-01T01:19:42;97402.484375;;;20.430000;30.173828
77517;BME280;66628;53.946;27.634;2023-02-01T01:20:42;97399.812500;;;20.430000;30.151367
77517;BME280;66628;53.946;27.634;2023-02-01T01:21:42;97397.015625;;;20.440001;29.939453
77517;BME280;66628;53.946;27.634;2023-02-01T01:22:42;97391.304688;;;20.450001;30.051758
77517;BME280;66628;53.946;27.634;2023-02-01T01:23:42;97386.093750;;;20.450001;30.096680
77517;BME280;66628;53.946;27.634;2023-02-01T01:24:42;97381.328125;;;20.450001;30.129883
77517;BME280;66628;53.946;27.634;2023-02-01T01:25:42;97383.390625;;;20.450001;30.018555
77517;BME280;66628;53.946;27.634;2023-02-01T01:26:42;97378.929688;;;20.459999;30.007812
77517;BME280;66628;53.946;27.634;2023-02-01T01:27:42;97387.593750;;;20.459999;30.052734
77517;BME280;66628;53.946;27.634;2023-02-01T01:28:42;97383.125000;;;20.459999;30.120117
77517;BME280;66628;53.946;27.634;2023-02-01T01:29:42;97386.359375;;;20.459999;30.187500
77517;BME280;66628;53.946;27.634;2023-02-01T01:30:42;97384.015625;;;20.469999;30.098633
77517;BME280;66628;53.946;27.634;2023-02-01T01:31:42;97386.906250;;;20.480000;30.042969
77517;BME280;66628;53.946;27.634;2023-02-01T01:32:42;97386.421875;;;20.480000;30.031250
77517;BME280;66628;53.946;27.634;2023-02-01T01:33:42;97383.718750;;;20.480000;29.964844
77517;BME280;66628;53.946;27.634;2023-02-01T01:34:42;97381.765625;;;20.490000;30.334961
77517;BME280;66628;53.946;27.634;2023-02-01T01:35:42;97378.015625;;;20.510000;30.167969
77517;BME280;66628;53.946;27.634;2023-02-01T01:36:42;97376.750000;;;20.510000;30.280273
77517;BME280;66628;53.946;27.634;2023-02-01T01:37:42;97377.578125;;;20.520000;30.336914
77517;BME280;66628;53.946;27.634;2023-02-01T01:38:42;97375.046875;;;20.520000;30.494141
77517;BME280;66628;53.946;27.634;2023-02-01T01:39:42;97371.343750;;;20.530001;30.394531
77517;BME280;66628;53.946;27.634;2023-02-01T01:40:46;97372.609375;;;20.530001;30.505859
77517;BME280;66628;53.946;27.634;2023-02-01T01:41:42;97369.734375;;;20.540001;30.505859
77517;BME280;66628;53.946;27.634;2023-02-01T01:42:42;97366.273438;;;20.540001;30.584961
77517;BME280;66628;53.946;27.634;2023-02-01T01:44:01;97365.398438;;;20.540001;30.551758
77517;BME280;66628;53.946;27.634;2023-02-01T01:45:42;97357.007812;;;20.540001;30.540039
77517;BME280;66628;53.946;27.634;2023-02-01T01:46:42;97354.687500;;;20.549999;30.518555
77517;BME280;66628;53.946;27.634;2023-02-01T01:47:46;97351.187500;;;20.549999;30.518555
77517;BME280;66628;53.946;27.634;2023-02-01T01:48:42;97349.062500;;;20.559999;30.485352
77517;BME280;66628;53.946;27.634;2023-02-01T01:49:42;97348.531250;;;20.559999;30.485352
77517;BME280;66628;53.946;27.634;2023-02-01T01:50:43;97346.875000;;;20.559999;30.440430
77517;BME280;66628;53.946;27.634;2023-02-01T01:51:49;97342.937500;;;20.559999;30.507812
77517;BME280;66628;53.946;27.634;2023-02-01T01:52:42;97340.273438;;;20.570000;30.631836
77517;BME280;66628;53.946;27.634;2023-02-01T01:53:43;97336.859375;;;20.559999;30.530273
77517;BME280;66628;53.946;27.634;2023-02-01T01:54:43;97334.718750;;;20.570000;30.453125
77517;BME280;66628;53.946;27.634;2023-02-01T01:55:42;97334.601562;;;20.570000;30.397461
77517;BME280;66628;53.946;27.634;2023-02-01T01:56:42;97332.843750;;;20.570000;30.284180
77517;BME280;66628;53.946;27.634;2023-02-01T01:57:42;97334.250000;;;20.570000;30.285156
77517;BME280;66628;53.946;27.634;2023-02-01T01:58:42;97332.484375;;;20.570000;30.284180
77517;BME280;66628;53.946;27.634;2023-02-01T01:59:42;97333.335938;;;20.580000;30.296875
77517;BME280;66628;53.946;27.634;2023-02-01T02:00:42;97334.031250;;;20.580000;30.251953
77517;BME280;66628;53.946;27.634;2023-02-01T02:01:42;97335.218750;;;20.580000;30.330078
77517;BME280;66628;53.946;27.634;2023-02-01T02:02:43;97335.609375;;;20.580000;30.285156
77517;BME280;66628;53.946;27.634;2023-02-01T02:03:42;97338.453125;;;20.580000;30.251953
77517;BME280;66628;53.946;27.634;2023-02-01T02:04:42;97334.648438;;;20.590000;30.285156
77517;BME280;66628;53.946;27.634;2023-02-01T02:05:42;97331.109375;;;20.580000;30.217773
77517;BME280;66628;53.946;27.634;2023-02-01T02:06:43;97331.632812;;;20.580000;30.240234
77517;BME280;66628;53.946;27.634;2023-02-01T02:07:43;97331.453125;;;20.580000;30.207031
77517;BME280;66628;53.946;27.634;2023-02-01T02:08:42;97332.765625;;;20.590000;30.251953
77517;BME280;66628;53.946;27.634;2023-02-01T02:09:42;97331.109375;;;20.590000;30.263672
77517;BME280;66628;53.946;27.634;2023-02-01T02:10:42;97326.515625;;;20.590000;30.241211
77517;BME280;66628;53.946;27.634;2023-02-01T02:11:42;97322.273438;;;20.590000;30.286133
77517;BME280;66628;53.946;27.634;2023-02-01T02:12:43;97322.140625;;;20.590000;30.286133
77517;BME280;66628;53.946;27.634;2023-02-01T02:13:42;97322.898438;;;20.600000;30.320312
77517;BME280;66628;53.946;27.634;2023-02-01T02:14:42;97318.046875;;;20.600000;30.331055
77517;BME280;66628;53.946;27.634;2023-02-01T02:15:43;97321.937500;;;20.600000;30.342773
77517;BME280;66628;53.946;27.634;2023-02-01T02:16:47;97316.031250;;;20.600000;30.365234
77517;BME280;66628;53.946;27.634;2023-02-01T02:18:52;97316.906250;;;20.600000;30.342773
77517;BME280;66628;53.946;27.634;2023-02-01T02:27:51;97304.632812;;;20.620001;30.344727
77517;BME280;66628;53.946;27.634;2023-02-01T02:32:51;97300.562500;;;20.620001;30.310547
77517;BME280;66628;53.946;27.634;2023-02-01T02:35:45;97298.906250;;;20.629999;30.310547
77517;BME280;66628;53.946;27.634;2023-02-01T02:37:43;97299.515625;;;20.629999;30.277344
77517;BME280;66628;53.946;27.634;2023-02-01T02:38:47;97296.187500;;;20.629999;30.288086
77517;BME280;66628;53.946;27.634;2023-02-01T02:40:45;97291.382812;;;20.639999;30.299805
77517;BME280;66628;53.946;27.634;2023-02-01T02:42:43;97289.031250;;;20.639999;30.290039
77517;BME280;66628;53.946;27.634;2023-02-01T02:43:46;97288.375000;;;20.650000;30.357422
77517;BME280;66628;53.946;27.634;2023-02-01T02:45:47;97287.593750;;;20.639999;30.300781
77517;BME280;66628;53.946;27.634;2023-02-01T02:46:45;97286.843750;;;20.650000;30.413086
77517;BME280;66628;53.946;27.634;2023-02-01T02:48:43;97286.976562;;;20.660000;30.502930
77517;BME280;66628;53.946;27.634;2023-02-01T02:49:43;97287.078125;;;20.660000;30.515625
77517;BME280;66628;53.946;27.634;2023-02-01T02:50:47;97285.890625;;;20.670000;30.571289
77517;BME280;66628;53.946;27.634;2023-02-01T02:51:43;97281.921875;;;20.670000;30.594727
77517;BME280;66628;53.946;27.634;2023-02-01T02:52:46;97284.890625;;;20.670000;30.661133
77517;BME280;66628;53.946;27.634;2023-02-01T02:54:43;97284.500000;;;20.680000;30.639648
77517;BME280;66628;53.946;27.634;2023-02-01T02:55:42;97281.828125;;;20.670000;30.717773
77517;BME280;66628;53.946;27.634;2023-02-01T02:56:42;97280.468750;;;20.680000;30.650391
77517;BME280;66628;53.946;27.634;2023-02-01T02:57:42;97279.773438;;;20.680000;30.672852
77517;BME280;66628;53.946;27.634;2023-02-01T02:58:42;97281.390625;;;20.680000;30.695312
77517;BME280;66628;53.946;27.634;2023-02-01T02:59:43;97279.875000;;;20.680000;30.729492
77517;BME280;66628;53.946;27.634;2023-02-01T03:00:42;97275.015625;;;20.690001;30.763672
77517;BME280;66628;53.946;27.634;2023-02-01T03:01:42;97271.515625;;;20.690001;30.752930
77517;BME280;66628;53.946;27.634;2023-02-01T03:02:42;97273.968750;;;20.690001;30.831055
77517;BME280;66628;53.946;27.634;2023-02-01T03:03:42;97271.343750;;;20.690001;30.786133
77517;BME280;66628;53.946;27.634;2023-02-01T03:04:42;97271.914062;;;20.690001;30.730469
77517;BME280;66628;53.946;27.634;2023-02-01T03:05:44;97272.531250;;;20.690001;30.730469
77517;BME280;66628;53.946;27.634;2023-02-01T03:06:42;97274.281250;;;20.690001;30.718750
77517;BME280;66628;53.946;27.634;2023-02-01T03:08:42;97273.625000;;;20.700001;30.752930
77517;BME280;66628;53.946;27.634;2023-02-01T03:09:42;97269.289062;;;20.700001;30.820312
77517;BME280;66628;53.946;27.634;2023-02-01T03:10:44;97273.179688;;;20.700001;30.809570
77517;BME280;66628;53.946;27.634;2023-02-01T03:11:42;97269.859375;;;20.700001;30.797852
77517;BME280;66628;53.946;27.634;2023-02-01T03:12:42;97269.109375;;;20.700001;30.775391
77517;BME280;66628;53.946;27.634;2023-02-01T03:13:44;97268.718750;;;20.700001;30.808594
77517;BME280;66628;53.946;27.634;2023-02-01T03:14:42;97269.421875;;;20.700001;30.842773
77517;BME280;66628;53.946;27.634;2023-02-01T03:17:42;97269.039062;;;20.709999;30.686523
77517;BME280;66628;53.946;27.634;2023-02-01T03:18:44;97272.976562;;;20.709999;30.720703
77517;BME280;66628;53.946;27.634;2023-02-01T03:19:45;97272.234375;;;20.709999;30.653320
77517;BME280;66628;53.946;27.634;2023-02-01T03:20:43;97269.859375;;;20.700001;30.641602
77517;BME280;66628;53.946;27.634;2023-02-01T03:22:42;97265.328125;;;20.700001;30.629883
77517;BME280;66628;53.946;27.634;2023-02-01T03:23:42;97262.468750;;;20.700001;30.583984
77517;BME280;66628;53.946;27.634;2023-02-01T03:24:43;97261.937500;;;20.700001;30.561523
77517;BME280;66628;53.946;27.634;2023-02-01T03:25:42;97257.656250;;;20.690001;30.561523
77517;BME280;66628;53.946;27.634;2023-02-01T03:26:43;97258.265625;;;20.700001;30.528320
77517;BME280;66628;53.946;27.634;2023-02-01T03:27:44;97254.328125;;;20.690001;30.573242
77517;BME280;66628;53.946;27.634;2023-02-01T03:28:43;97255.562500;;;20.690001;30.539062
77517;BME280;66628;53.946;27.634;2023-02-01T03:29:48;97255.906250;;;20.690001;30.528320
77517;BME280;66628;53.946;27.634;2023-02-01T03:30:42;97251.140625;;;20.690001;30.528320
77517;BME280;66628;53.946;27.634;2023-02-01T03:31:42;97254.640625;;;20.690001;30.505859
77517;BME280;66628;53.946;27.634;2023-02-01T03:32:42;97255.250000;;;20.690001;30.505859
77517;BME280;66628;53.946;27.634;2023-02-01T03:33:42;97250.921875;;;20.700001;30.528320
77517;BME280;66628;53.946;27.634;2023-02-01T03:34:42;97254.109375;;;20.700001;30.652344
77517;BME280;66628;53.946;27.634;2023-02-01T03:35:50;97252.460938;;;20.709999;30.653320
77517;BME280;66628;53.946;27.634;2023-02-01T03:36:44;97250.968750;;;20.709999;30.732422
77517;BME280;66628;53.946;27.634;2023-02-01T03:37:42;97252.203125;;;20.719999;30.743164
77517;BME280;66628;53.946;27.634;2023-02-01T03:40:42;97242.890625;;;20.730000;30.800781
77517;BME280;66628;53.946;27.634;2023-02-01T03:41:43;97241.929688;;;20.740000;30.700195
77517;BME280;66628;53.946;27.634;2023-02-01T03:42:43;97244.992188;;;20.740000;30.811523
77517;BME280;66628;53.946;27.634;2023-02-01T03:44:29;97239.789062;;;20.740000;30.878906
77517;BME280;66628;53.946;27.634;2023-02-01T03:44:46;97238.296875;;;20.740000;30.856445
77517;BME280;66628;53.946;27.634;2023-02-01T03:45:43;97236.468750;;;20.740000;30.890625
77517;BME280;66628;53.946;27.634;2023-02-01T03:47:42;97231.000000;;;20.740000;30.968750
77517;BME280;66628;53.946;27.634;2023-02-01T03:48:42;97234.976562;;;20.740000;30.958008
77517;BME280;66628;53.946;27.634;2023-02-01T03:49:43;97226.500000;;;20.750000;30.924805
77517;BME280;66628;53.946;27.634;2023-02-01T03:50:47;97225.218750;;;20.740000;30.923828
77517;BME280;66628;53.946;27.634;2023-02-01T03:51:42;97227.281250;;;20.740000;31.002930
77517;BME280;66628;53.946;27.634;2023-02-01T03:52:48;97228.023438;;;20.740000;30.935547
77517;BME280;66628;53.946;27.634;2023-02-01T03:53:42;97228.156250;;;20.740000;30.946289
77517;BME280;66628;53.946;27.634;2023-02-01T03:54:42;97232.585938;;;20.750000;30.958008
77517;BME280;66628;53.946;27.634;2023-02-01T03:55:42;97225.218750;;;20.740000;31.058594
77517;BME280;66628;53.946;27.634;2023-02-01T03:56:42;97225.703125;;;20.740000;31.115234
77517;BME280;66628;53.946;27.634;2023-02-01T03:57:45;97225.570312;;;20.740000;31.058594
77517;BME280;66628;53.946;27.634;2023-02-01T03:58:42;97223.835938;;;20.750000;31.115234
77517;BME280;66628;53.946;27.634;2023-02-01T03:59:42;97224.445312;;;20.750000;31.059570
77517;BME280;66628;53.946;27.634;2023-02-01T04:00:47;97222.828125;;;20.750000;31.047852
77517;BME280;66628;53.946;27.634;2023-02-01T04:01:42;97220.421875;;;20.750000;31.160156
77517;BME280;66628;53.946;27.634;2023-02-01T04:02:42;97218.593750;;;20.750000;31.070312
77517;BME280;66628;53.946;27.634;2023-02-01T04:03:42;97214.125000;;;20.750000;31.047852
77517;BME280;66628;53.946;27.634;2023-02-01T04:04:42;97218.671875;;;20.750000;31.002930
77517;BME280;66628;53.946;27.634;2023-02-01T04:05:42;97220.156250;;;20.750000;31.037109
77517;BME280;66628;53.946;27.634;2023-02-01T04:06:42;97220.296875;;;20.750000;31.093750
77517;BME280;66628;53.946;27.634;2023-02-01T04:07:42;97215.218750;;;20.750000;31.059570
77517;BME280;66628;53.946;27.634;2023-02-01T04:08:42;97217.406250;;;20.760000;31.093750
77517;BME280;66628;53.946;27.634;2023-02-01T04:09:42;97217.882812;;;20.770000;31.139648
77517;BME280;66628;53.946;27.634;2023-02-01T04:10:42;97217.140625;;;20.750000;31.194336
77517;BME280;66628;53.946;27.634;2023-02-01T04:11:42;97213.335938;;;20.770000;31.150391
77517;BME280;66628;53.946;27.634;2023-02-01T04:12:42;97215.390625;;;20.760000;31.015625
77517;BME280;66628;53.946;27.634;2023-02-01T04:13:42;97211.937500;;;20.770000;31.038086
77517;BME280;66628;53.946;27.634;2023-02-01T04:14:42;97212.632812;;;20.770000;31.083008
77517;BME280;66628;53.946;27.634;2023-02-01T04:15:42;97205.289062;;;20.770000;30.970703
77517;BME280;66628;53.946;27.634;2023-02-01T04:16:42;97206.515625;;;20.770000;30.959961
77517;BME280;66628;53.946;27.634;2023-02-01T04:17:42;97204.500000;;;20.760000;30.982422
77517;BME280;66628;53.946;27.634;2023-02-01T04:18:42;97204.296875;;;20.770000;30.925781
77517;BME280;66628;53.946;27.634;2023-02-01T04:19:42;97204.593750;;;20.770000;30.915039
77517;BME280;66628;53.946;27.634;2023-02-01T04:20:42;97201.671875;;;20.770000;30.959961
77517;BME280;66628;53.946;27.634;2023-02-01T04:21:42;97197.078125;;;20.770000;30.959961
77517;BME280;66628;53.946;27.634;2023-02-01T04:22:42;97197.125000;;;20.770000;30.925781
77517;BME280;66628;53.946;27.634;2023-02-01T04:23:42;97195.195312;;;20.770000;30.937500
77517;BME280;66628;53.946;27.634;2023-02-01T04:24:42;97198.343750;;;20.770000;30.892578
77517;BME280;66628;53.946;27.634;2023-02-01T04:25:42;97197.382812;;;20.780001;30.926758
77517;BME280;66628;53.946;27.634;2023-02-01T04:26:42;97193.578125;;;20.780001;31.039062
77517;BME280;66628;53.946;27.634;2023-02-01T04:27:42;97193.875000;;;20.790001;30.950195
77517;BME280;66628;53.946;27.634;2023-02-01T04:28:45;97192.921875;;;20.770000;30.825195
77517;BME280;66628;53.946;27.634;2023-02-01T04:29:42;97193.140625;;;20.770000;30.982422
77517;BME280;66628;53.946;27.634;2023-02-01T04:30:42;97191.734375;;;20.780001;30.972656
77517;BME280;66628;53.946;27.634;2023-02-01T04:31:42;97190.906250;;;20.780001;30.937500
77517;BME280;66628;53.946;27.634;2023-02-01T04:32:42;97186.578125;;;20.780001;30.848633
77517;BME280;66628;53.946;27.634;2023-02-01T04:33:42;97189.593750;;;20.770000;30.835938
77517;BME280;66628;53.946;27.634;2023-02-01T04:34:42;97194.757812;;;20.780001;31.004883
77517;BME280;66628;53.946;27.634;2023-02-01T04:35:42;97189.593750;;;20.770000;30.915039
77517;BME280;66628;53.946;27.634;2023-02-01T04:36:42;97192.515625;;;20.770000;30.993164
77517;BME280;66628;53.946;27.634;2023-02-01T04:37:42;97193.093750;;;20.770000;31.117188
77517;BME280;66628;53.946;27.634;2023-02-01T04:38:42;97192.921875;;;20.770000;31.004883
77517;BME280;66628;53.946;27.634;2023-02-01T04:39:42;97195.804688;;;20.780001;31.184570
77517;BME280;66628;53.946;27.634;2023-02-01T04:40:42;97192.703125;;;20.780001;31.128906
77517;BME280;66628;53.946;27.634;2023-02-01T04:41:42;97191.828125;;;20.780001;31.397461
77517;BME280;66628;53.946;27.634;2023-02-01T04:42:42;97193.179688;;;20.790001;31.252930
77517;BME280;66628;53.946;27.634;2023-02-01T04:43:42;97196.062500;;;20.780001;31.106445
77517;BME280;66628;53.946;27.634;2023-02-01T04:44:42;97195.187500;;;20.780001;31.185547
77517;BME280;66628;53.946;27.634;2023-02-01T04:45:46;97189.375000;;;20.780001;31.196289
77517;BME280;66628;53.946;27.634;2023-02-01T04:46:42;97189.156250;;;20.780001;30.994141
77517;BME280;66628;53.946;27.634;2023-02-01T04:47:42;97192.218750;;;20.780001;31.118164
77517;BME280;66628;53.946;27.634;2023-02-01T04:48:42;97189.203125;;;20.780001;31.072266
77517;BME280;66628;53.946;27.634;2023-02-01T04:49:42;97190.382812;;;20.780001;31.039062
77517;BME280;66628;53.946;27.634;2023-02-01T04:50:42;97188.890625;;;20.780001;31.118164
77517;BME280;66628;53.946;27.634;2023-02-01T04:51:42;97189.203125;;;20.780001;31.083984
77517;BME280;66628;53.946;27.634;2023-02-01T04:52:42;97186.656250;;;20.780001;31.173828
77517;BME280;66628;53.946;27.634;2023-02-01T04:53:42;97189.679688;;;20.790001;31.073242
77517;BME280;66628;53.946;27.634;2023-02-01T04:54:42;97186.617188;;;20.780001;31.151367
77517;BME280;66628;53.946;27.634;2023-02-01T04:55:42;97187.710938;;;20.780001;31.095703
77517;BME280;66628;53.946;27.634;2023-02-01T04:56:42;97185.710938;;;20.790001;31.252930
77517;BME280;66628;53.946;27.634;2023-02-01T04:57:42;97180.750000;;;20.790001;31.128906
77517;BME280;66628;53.946;27.634;2023-02-01T04:58:42;97178.054688;;;20.790001;31.185547
77517;BME280;66628;53.946;27.634;2023-02-01T04:59:42;97183.039062;;;20.799999;31.208984
77517;BME280;66628;53.946;27.634;2023-02-01T05:00:42;97178.312500;;;20.799999;31.231445